createdAt,value
2023-03-29T00:03:21.190Z,-0.3
2023-03-29T00:06:21.712Z,-0.22
2023-03-29T00:09:19.288Z,-0.39
2023-03-29T00:12:14.815Z,-0.46
2023-03-29T00:15:11.382Z,-0.43
2023-03-29T00:21:00.872Z,-0.47
2023-03-29T00:23:57.076Z,-0.55
2023-03-29T00:26:54.650Z,-0.53
2023-03-29T00:29:50.199Z,-0.51
2023-03-29T00:32:46.797Z,0.03
2023-03-29T00:35:43.377Z,-0.55
2023-03-29T00:38:41.130Z,0.15
2023-03-29T00:41:40.442Z,-0.4
2023-03-29T00:44:46.933Z,-0.52
2023-03-29T00:47:45.540Z,-0.56
2023-03-29T00:50:48.024Z,-0.64
2023-03-29T00:53:48.579Z,-0.61
2023-03-29T00:56:48.203Z,-0.69
2023-03-29T00:59:46.659Z,-0.74
2023-03-29T01:02:44.331Z,-0.54
2023-03-29T01:05:44.823Z,-0.77
2023-03-29T01:08:44.367Z,-0.91
2023-03-29T01:11:45.889Z,-0.95
2023-03-29T01:14:46.468Z,-1.03
2023-03-29T01:55:10.411Z,-1.25
2023-03-29T01:58:07.937Z,-1.31
2023-03-29T02:01:10.610Z,-1.16
2023-03-29T02:04:17.034Z,-1.24
2023-03-29T02:07:15.607Z,-1.04
2023-03-29T02:10:14.097Z,-0.94
2023-03-29T02:13:09.729Z,-1.25
2023-03-29T02:16:08.265Z,-1.28
2023-03-29T02:19:05.807Z,-1.11
2023-03-29T02:22:08.365Z,-0.96
2023-03-29T02:25:07.899Z,-1.2
2023-03-29T02:28:04.455Z,-1.4
2023-03-29T02:31:08.031Z,-1.48
2023-03-29T02:34:09.541Z,-1.13
2023-03-29T02:37:15.096Z,-0.55
2023-03-29T02:40:12.669Z,-0.58
2023-03-29T02:43:10.191Z,-0.89
2023-03-29T02:46:07.804Z,-0.53
2023-03-29T02:49:05.318Z,-0.61
2023-03-29T02:52:06.855Z,-1.21
2023-03-29T02:55:06.382Z,-1.21
2023-03-29T02:58:08.022Z,-1.42
2023-03-29T03:01:05.500Z,-1.49
2023-03-29T03:04:02.104Z,-1.07
2023-03-29T03:06:58.630Z,-1.11
2023-03-29T03:09:55.184Z,-1.35
2023-03-29T03:12:50.741Z,-0.85
2023-03-29T03:15:49.575Z,-1.2
2023-03-29T03:18:45.817Z,-1.39
2023-03-29T03:21:41.386Z,-1.21
2023-03-29T03:24:39.008Z,-0.96
2023-03-29T03:27:34.504Z,-1.4
2023-03-29T03:30:30.088Z,-1.69
2023-03-29T03:33:27.649Z,-1.78
2023-03-29T03:36:26.218Z,-1.57
2023-03-29T03:39:22.778Z,-1.8
2023-03-29T03:42:18.305Z,-1.84
2023-03-29T03:45:15.900Z,-1.65
2023-03-29T03:48:11.468Z,-1.42
2023-03-29T03:54:13.533Z,-1.67
2023-03-29T03:57:09.148Z,-1.78
2023-03-29T04:00:09.656Z,-1.92
2023-03-29T04:03:05.317Z,-1.86
2023-03-29T04:06:01.762Z,-1.76
2023-03-29T04:08:57.271Z,-1.98
2023-03-29T04:11:52.868Z,-1.77
2023-03-29T04:14:48.404Z,-1.86
2023-03-29T04:34:56.462Z,-1.49
2023-03-29T04:37:54.033Z,-1.04
2023-03-29T04:40:54.720Z,-0.78
2023-03-29T04:43:50.088Z,-0.79
2023-03-29T04:49:51.188Z,-0.93
2023-03-29T04:55:55.314Z,-1.16
2023-03-29T04:58:50.862Z,-0.63
2023-03-29T05:04:51.904Z,-0.74
2023-03-29T05:07:50.503Z,-0.75
2023-03-29T05:10:47.076Z,-0.62
2023-03-29T05:13:43.637Z,-0.8
2023-03-29T05:33:53.799Z,0.56
2023-03-29T05:36:51.139Z,0.33
2023-03-29T05:39:48.700Z,0.18
2023-03-29T05:42:47.202Z,0.23
2023-03-29T05:45:42.822Z,0.45
2023-03-29T05:48:38.345Z,0.66
2023-03-29T05:51:34.933Z,1.03
2023-03-29T05:54:30.494Z,0.73
2023-03-29T05:57:26.142Z,1.25
2023-03-29T06:00:23.662Z,1.02
2023-03-29T06:03:21.209Z,1.19
2023-03-29T06:06:18.742Z,1.39
2023-03-29T06:09:15.259Z,1.71
2023-03-29T06:12:11.881Z,2.36
2023-03-29T06:15:10.562Z,3.88
2023-03-29T06:18:10.991Z,5.23
2023-03-29T06:21:08.474Z,5.64
2023-03-29T06:24:05.069Z,4.82
2023-03-29T06:27:01.636Z,5.42
2023-03-29T06:29:57.169Z,6.1
2023-03-29T06:32:54.926Z,5.88
2023-03-29T06:35:51.343Z,5.83
2023-03-29T06:38:47.820Z,5.78
2023-03-29T06:41:44.401Z,6.33
2023-03-29T06:44:42.080Z,6.14
2023-03-29T06:47:37.552Z,6.25
2023-03-29T06:50:34.065Z,7.1
2023-03-29T06:53:30.617Z,7.19
2023-03-29T06:56:26.215Z,6.47
2023-03-29T07:02:29.336Z,6.95
2023-03-29T07:05:26.850Z,7.48
2023-03-29T07:08:31.548Z,6.99
2023-03-29T07:11:26.942Z,7.39
2023-03-29T07:14:22.510Z,7.83
2023-03-29T07:17:18.073Z,7.85
2023-03-29T07:20:14.657Z,8.35
2023-03-29T07:23:11.205Z,8.83
2023-03-29T07:25:46.845Z,8.84
2023-03-29T07:31:49.912Z,7.95
2023-03-29T07:34:49.406Z,9.78
2023-03-29T07:37:46.005Z,11.34
2023-03-29T07:40:44.576Z,10.41
2023-03-29T07:43:42.113Z,8.66
2023-03-29T07:46:38.655Z,7.6
2023-03-29T07:49:35.207Z,8.16
2023-03-29T07:52:30.789Z,8.03
2023-03-29T07:55:27.342Z,5.79
2023-03-29T07:58:22.880Z,7.24
2023-03-29T08:01:21.489Z,8.48
2023-03-29T08:04:17.168Z,7.45
2023-03-29T08:10:19.152Z,7.28
2023-03-29T08:13:15.661Z,6.57
2023-03-29T08:16:13.295Z,6.49
2023-03-29T08:19:08.797Z,6.52
2023-03-29T08:25:10.940Z,6.3
2023-03-29T08:28:09.430Z,6.88
2023-03-29T08:31:07.051Z,6.34
2023-03-29T08:34:02.594Z,7.25
2023-03-29T08:36:59.135Z,7.47
2023-03-29T08:39:54.740Z,6.97
2023-03-29T08:43:06.248Z,6.9
2023-03-29T08:46:11.889Z,7.51
2023-03-29T08:49:12.359Z,8.83
2023-03-29T08:52:15.855Z,8.86
2023-03-29T08:55:17.356Z,8.2
2023-03-29T08:58:19.920Z,7.55
2023-03-29T09:01:18.521Z,7.95
2023-03-29T09:04:19.045Z,8.47
2023-03-29T09:07:15.586Z,8.66
2023-03-29T09:10:13.189Z,8.22
2023-03-29T09:13:23.681Z,8.62
2023-03-29T09:16:26.302Z,9.24
2023-03-29T09:19:37.772Z,8.18
2023-03-29T09:25:53.849Z,8.64
2023-03-29T09:28:55.305Z,8.33
2023-03-29T09:31:54.952Z,8.73
2023-03-29T09:34:59.462Z,9.23
2023-03-29T09:38:00.035Z,9.54
2023-03-29T09:41:03.787Z,10.48
2023-03-29T09:44:07.335Z,10.84
2023-03-29T09:47:08.610Z,10.69
2023-03-29T09:50:16.851Z,9.01
2023-03-29T09:53:10.706Z,9.15
2023-03-29T09:56:09.259Z,9.52
2023-03-29T09:59:05.838Z,9.04
2023-03-29T10:02:08.368Z,8.79
2023-03-29T10:05:04.952Z,10.1
2023-03-29T10:08:13.489Z,9.06
2023-03-29T10:11:13.022Z,9.09
2023-03-29T10:14:16.575Z,9.79
2023-03-29T10:17:16.125Z,10.76
2023-03-29T10:20:18.662Z,9.99
2023-03-29T10:23:20.175Z,11.16
2023-03-29T10:26:23.727Z,11.21
2023-03-29T10:29:19.273Z,10.65
2023-03-29T10:32:16.852Z,10.09
2023-03-29T10:35:18.403Z,10.29
2023-03-29T10:38:16.920Z,11.69
2023-03-29T10:41:16.543Z,12.39
2023-03-29T10:44:27.061Z,11.91
2023-03-29T10:47:23.643Z,13.79
2023-03-29T10:50:22.127Z,14.7
2023-03-29T10:53:22.676Z,14.69
2023-03-29T10:56:27.193Z,14.43
2023-03-29T10:59:32.766Z,13.03
2023-03-29T11:02:43.346Z,12.91
2023-03-29T11:05:48.802Z,13.04
2023-03-29T11:08:57.345Z,10.95
2023-03-29T11:12:15.016Z,11.55
2023-03-29T11:15:15.366Z,12.25
2023-03-29T11:18:28.874Z,10.99
2023-03-29T11:21:34.447Z,11.42
2023-03-29T11:24:40.981Z,11.49
2023-03-29T11:27:49.511Z,12.89
2023-03-29T11:30:55.069Z,12.94
2023-03-29T11:34:04.535Z,13.17
2023-03-29T11:37:09.104Z,12.52
2023-03-29T11:40:19.647Z,13.56
2023-03-29T11:43:23.229Z,13.64
2023-03-29T11:46:26.770Z,13.12
2023-03-29T11:49:27.284Z,14.27
2023-03-29T11:52:28.845Z,12.53
2023-03-29T11:55:30.515Z,12.68
2023-03-29T11:58:30.900Z,13.02
2023-03-29T12:01:33.463Z,14.02
2023-03-29T12:04:36.003Z,14.34
2023-03-29T12:07:43.545Z,15.36
2023-03-29T12:10:44.080Z,15.87
2023-03-29T12:13:46.598Z,15.98
2023-03-29T12:16:48.250Z,14.52
2023-03-29T12:19:55.699Z,13.55
2023-03-29T12:22:52.275Z,12.63
2023-03-29T12:25:52.791Z,13.37
2023-03-29T12:29:06.358Z,13.81
2023-03-29T12:32:13.926Z,13.83
2023-03-29T12:35:24.374Z,14.22
2023-03-29T12:38:26.715Z,13.25
2023-03-29T12:41:28.491Z,13.44
2023-03-29T12:44:24.188Z,15.18
2023-03-29T12:47:25.596Z,15.11
2023-03-29T12:50:28.153Z,14.87
2023-03-29T12:53:26.665Z,15.41
2023-03-29T12:56:32.266Z,15.94
2023-03-29T12:59:37.794Z,16.2
2023-03-29T13:02:39.515Z,15.07
2023-03-29T13:05:37.913Z,15.67
2023-03-29T13:08:41.422Z,15.89
2023-03-29T13:11:39.971Z,15.23
2023-03-29T13:14:43.489Z,14.77
2023-03-29T13:17:45.248Z,13.97
2023-03-29T13:20:55.530Z,14
2023-03-29T13:24:03.054Z,15.44
2023-03-29T13:27:09.621Z,15.03
2023-03-29T13:30:20.127Z,14.6
2023-03-29T13:33:28.683Z,15.1
2023-03-29T13:36:35.209Z,14.68
2023-03-29T13:39:36.796Z,13.91
2023-03-29T13:42:41.317Z,12.84
2023-03-29T13:45:45.832Z,12.61
2023-03-29T13:48:49.342Z,12.91
2023-03-29T13:51:54.918Z,13.63
2023-03-29T13:54:57.412Z,12.95
2023-03-29T13:57:58.012Z,12.9
2023-03-29T14:01:00.643Z,13.75
2023-03-29T14:04:04.086Z,14.1
2023-03-29T14:07:06.680Z,15.28
2023-03-29T14:10:05.257Z,14.21
2023-03-29T14:13:04.732Z,14.28
2023-03-29T14:16:08.331Z,12.26
2023-03-29T14:19:10.817Z,14.96
2023-03-29T14:22:09.402Z,14.92
2023-03-29T14:25:11.925Z,15.32
2023-03-29T14:28:14.468Z,13.6
2023-03-29T14:34:16.560Z,16.14
2023-03-29T14:37:14.131Z,14.74
2023-03-29T14:40:16.696Z,14.31
2023-03-29T14:43:16.209Z,13.66
2023-03-29T14:46:13.795Z,16.23
2023-03-29T14:49:12.287Z,16.42
2023-03-29T14:52:10.899Z,16.76
2023-03-29T14:55:10.437Z,15.34
2023-03-29T14:58:12.954Z,15.23
2023-03-29T15:01:14.574Z,14.57
2023-03-29T15:04:15.131Z,15.16
2023-03-29T15:07:12.596Z,15.03
2023-03-29T15:10:17.194Z,16.39
2023-03-29T15:13:17.730Z,15.37
2023-03-29T15:16:15.373Z,13.22
2023-03-29T15:19:13.812Z,13.5
2023-03-29T15:22:10.405Z,13.78
2023-03-29T15:25:10.950Z,14.33
2023-03-29T15:28:18.493Z,14.27
2023-03-29T15:31:18.075Z,14.55
2023-03-29T15:34:14.609Z,15.04
2023-03-29T15:37:13.182Z,15.36
2023-03-29T15:40:15.788Z,14.81
2023-03-29T15:43:12.247Z,13.88
2023-03-29T15:46:08.098Z,13.19
2023-03-29T15:49:05.339Z,12.61
2023-03-29T15:52:00.881Z,12.19
2023-03-29T15:54:56.470Z,12.58
2023-03-29T15:57:53.110Z,13.24
2023-03-29T16:00:51.594Z,12.95
2023-03-29T16:03:48.173Z,13.08
2023-03-29T16:06:44.690Z,13.09
2023-03-29T16:09:44.304Z,12.86
2023-03-29T16:12:41.838Z,12.83
2023-03-29T16:15:43.352Z,12.98
2023-03-29T16:21:45.449Z,12.91
2023-03-29T16:24:44.008Z,12.63
2023-03-29T16:27:39.570Z,12.72
2023-03-29T16:30:36.116Z,12.62
2023-03-29T16:33:32.706Z,12.39
2023-03-29T16:36:30.289Z,12.36
2023-03-29T16:39:26.833Z,12.23
2023-03-29T16:42:22.358Z,12.13
2023-03-29T16:45:18.935Z,11.86
2023-03-29T16:48:16.498Z,11.89
2023-03-29T16:51:12.045Z,11.89
2023-03-29T16:57:13.193Z,11.98
2023-03-29T17:00:10.719Z,11.57
2023-03-29T17:03:07.271Z,11.72
2023-03-29T17:06:05.362Z,11.48
2023-03-29T17:09:01.348Z,11.56
2023-03-29T17:11:57.886Z,11.48
2023-03-29T17:14:53.468Z,11.49
2023-03-29T17:17:49.137Z,11.63
2023-03-29T17:20:45.588Z,11.43
2023-03-29T17:23:41.132Z,11.44
2023-03-29T17:26:39.744Z,11.18
2023-03-29T17:29:35.259Z,10.98
2023-03-29T17:32:30.891Z,10.88
2023-03-29T17:35:26.432Z,11.11
2023-03-29T17:38:21.926Z,10.86
2023-03-29T17:41:22.523Z,10.82
2023-03-29T17:44:20.256Z,10.88
2023-03-29T17:47:15.835Z,10.91
2023-03-29T17:50:12.536Z,10.77
2023-03-29T17:53:12.733Z,10.53
2023-03-29T17:56:20.268Z,10.46
2023-03-29T17:59:21.816Z,10.36
2023-03-29T18:02:23.511Z,10.38
2023-03-29T18:05:23.924Z,10.38
2023-03-29T18:08:24.475Z,10.26
2023-03-29T18:11:22.015Z,10.29
2023-03-29T18:14:22.566Z,10.16
2023-03-29T18:17:24.168Z,10.17
2023-03-29T18:20:24.682Z,10.2
2023-03-29T18:23:20.245Z,10.32
2023-03-29T18:26:22.843Z,10.13
2023-03-29T18:29:23.339Z,10.12
2023-03-29T18:32:24.909Z,10.02
2023-03-29T18:35:25.558Z,10
2023-03-29T18:38:26.997Z,9.91
2023-03-29T18:41:27.538Z,9.91
2023-03-29T18:44:30.093Z,10.03
2023-03-29T18:50:43.198Z,10.1
2023-03-29T18:53:48.675Z,10.1
2023-03-29T18:56:50.254Z,10.16
2023-03-29T18:59:50.787Z,10.19
2023-03-29T19:02:51.371Z,10.09
2023-03-29T19:05:54.854Z,10.12
2023-03-29T19:08:53.410Z,9.69
2023-03-29T19:11:48.921Z,9.67
2023-03-29T19:14:55.505Z,9.71
2023-03-29T19:17:56.089Z,9.33
2023-03-29T19:20:53.618Z,9.29
2023-03-29T19:23:53.178Z,9.37
2023-03-29T19:26:51.726Z,9.39
2023-03-29T19:29:53.412Z,9.5
2023-03-29T19:32:49.896Z,9.58
2023-03-29T19:35:51.426Z,9.54
2023-03-29T19:38:47.868Z,9.66
2023-03-29T19:41:44.474Z,9.27
2023-03-29T19:44:45.026Z,9.08
2023-03-29T19:47:57.822Z,9.16
2023-03-29T19:50:53.119Z,9.18
2023-03-29T19:53:50.215Z,9.43
2023-03-29T19:56:52.566Z,8.88
2023-03-29T20:00:01.718Z,8.86
2023-03-29T20:02:59.390Z,8.83
2023-03-29T20:06:00.842Z,8.89
2023-03-29T20:09:06.224Z,9.24
2023-03-29T20:12:07.902Z,9.33
2023-03-29T20:15:04.465Z,9.14
2023-03-29T20:18:08.144Z,9.06
2023-03-29T20:24:15.137Z,9.3
2023-03-29T20:27:10.625Z,9.39
2023-03-29T20:30:09.210Z,9.4
2023-03-29T20:33:04.920Z,9.37
2023-03-29T20:36:00.455Z,9.25
2023-03-29T20:39:03.271Z,9.29
2023-03-29T20:42:00.414Z,9.09
2023-03-29T20:44:59.981Z,9.09
2023-03-29T20:47:57.927Z,9.17
2023-03-29T20:50:58.060Z,9.22
2023-03-29T20:54:01.663Z,9.33
2023-03-29T20:56:58.250Z,9.19
2023-03-29T20:59:54.759Z,8.98
2023-03-29T21:02:54.385Z,8.86
2023-03-29T21:05:53.866Z,8.72
2023-03-29T21:08:52.750Z,8.81
2023-03-29T21:11:48.939Z,8.62
2023-03-29T21:14:51.540Z,8.69
2023-03-29T21:17:47.116Z,8.62
2023-03-29T21:20:44.613Z,8.94
2023-03-29T21:23:45.156Z,9.09
2023-03-29T21:26:41.730Z,8.92
2023-03-29T21:29:37.268Z,9.04
2023-03-29T21:32:32.906Z,9.09
2023-03-29T21:35:28.462Z,9.03
2023-03-29T21:38:28.958Z,9.09
2023-03-29T21:41:24.508Z,9.07
2023-03-29T21:44:20.092Z,9.65
2023-03-29T21:47:15.654Z,9.44
2023-03-29T21:50:11.204Z,9.54
2023-03-29T21:53:08.793Z,9.31
2023-03-29T21:56:06.369Z,9.39
2023-03-29T21:59:06.867Z,8.75
2023-03-29T22:05:07.986Z,8.26
2023-03-29T22:08:09.568Z,8.22
2023-03-29T22:11:11.129Z,8.79
2023-03-29T22:14:07.624Z,8.82
2023-03-29T22:17:05.179Z,8.41
2023-03-29T22:20:12.720Z,9.05
2023-03-29T22:23:09.299Z,8.93
2023-03-29T22:26:06.871Z,9.57
2023-03-29T22:29:03.383Z,9.7
2023-03-29T22:31:59.960Z,8.96
2023-03-29T22:34:56.520Z,9.33
2023-03-29T22:37:54.070Z,9.57
2023-03-29T22:40:49.613Z,9.26
2023-03-29T22:43:46.183Z,8.86
2023-03-29T22:46:42.747Z,8.73
2023-03-29T22:49:38.312Z,8.48
2023-03-29T22:52:33.858Z,8.53
2023-03-29T22:55:29.436Z,8.61
2023-03-29T22:58:24.972Z,8.61
2023-03-29T23:01:20.523Z,8.55
2023-03-29T23:04:17.134Z,8.32
2023-03-29T23:07:12.670Z,8.25
2023-03-29T23:13:20.764Z,8.18
2023-03-29T23:16:20.329Z,7.94
2023-03-29T23:19:16.882Z,7.92
2023-03-29T23:22:13.420Z,7.77
2023-03-29T23:25:09.000Z,7.6
2023-03-29T23:28:04.512Z,7.75
2023-03-29T23:31:02.920Z,7.78
2023-03-29T23:33:59.647Z,7.63
2023-03-29T23:36:58.189Z,7.89
2023-03-29T23:39:53.744Z,7.71
2023-03-29T23:45:55.851Z,7.73
2023-03-29T23:48:52.388Z,7.94
2023-03-29T23:51:50.999Z,7.89
2023-03-29T23:54:49.529Z,7.53
2023-03-29T23:57:46.123Z,7.7
